createdAt,value
2023-05-04T00:01:01.628Z,101688.59
2023-05-04T00:03:29.502Z,101685.41
2023-05-04T00:05:57.331Z,101684.78
2023-05-04T00:08:24.897Z,101683.94
2023-05-04T00:10:52.404Z,101692.28
2023-05-04T00:13:20.088Z,101700.16
2023-05-04T00:15:48.070Z,101693.84
2023-05-04T00:18:15.385Z,101702.81
2023-05-04T00:20:42.688Z,101693.91
2023-05-04T00:23:10.427Z,101698.59
2023-05-04T00:25:38.255Z,101695.22
2023-05-04T00:28:05.908Z,101682.13
2023-05-04T00:30:34.120Z,101692.13
2023-05-04T00:33:02.709Z,101680.06
2023-05-04T00:35:32.068Z,101683.91
2023-05-04T00:40:43.966Z,101690.53
2023-05-04T00:43:11.706Z,101690.53
2023-05-04T00:45:39.315Z,101687.41
2023-05-04T00:48:08.170Z,101686.38
2023-05-04T00:50:36.256Z,101688.34
2023-05-04T00:53:09.916Z,101702.19
2023-05-04T00:55:42.025Z,101685.06
2023-05-04T00:58:11.757Z,101701.00
2023-05-04T01:00:39.292Z,101698.50
2023-05-04T01:03:06.975Z,101694.09
2023-05-04T01:05:37.273Z,101697.09
2023-05-04T01:08:11.066Z,101704.53
2023-05-04T01:10:46.145Z,101706.47
2023-05-04T01:13:15.849Z,101705.63
2023-05-04T01:15:43.490Z,101704.78
2023-05-04T01:18:30.577Z,101700.06
2023-05-04T01:21:03.074Z,101692.41
2023-05-04T01:23:31.810Z,101689.44
2023-05-04T01:26:08.027Z,101706.03
2023-05-04T01:28:55.757Z,101709.25
2023-05-04T01:31:24.320Z,101696.75
2023-05-04T01:33:58.072Z,101703.34
2023-05-04T01:36:34.931Z,101700.41
2023-05-04T01:39:04.016Z,101707.63
2023-05-04T01:44:19.961Z,101701.69
2023-05-04T01:46:53.925Z,101707.22
2023-05-04T01:49:22.079Z,101705.75
2023-05-04T01:51:54.024Z,101701.28
2023-05-04T01:54:21.733Z,101700.63
2023-05-04T01:56:49.406Z,101700.19
2023-05-04T01:59:17.225Z,101688.50
2023-05-04T02:01:45.293Z,101693.16
2023-05-04T02:04:13.407Z,101697.97
2023-05-04T02:06:40.901Z,101679.63
2023-05-04T02:09:09.247Z,101694.44
2023-05-04T02:11:36.885Z,101686.31
2023-05-04T02:14:05.183Z,101702.38
2023-05-04T02:16:32.971Z,101698.22
2023-05-04T02:19:00.675Z,101695.19
2023-05-04T02:21:28.234Z,101689.81
2023-05-04T02:23:56.848Z,101691.19
2023-05-04T02:26:24.394Z,101695.44
2023-05-04T02:28:52.532Z,101694.13
2023-05-04T02:31:20.051Z,101694.81
2023-05-04T02:33:48.919Z,101692.66
2023-05-04T02:36:16.480Z,101709.69
2023-05-04T02:38:45.416Z,101697.38
2023-05-04T02:41:12.705Z,101684.25
2023-05-04T02:43:40.206Z,101703.34
2023-05-04T02:46:08.503Z,101696.13
2023-05-04T02:48:35.825Z,101695.28
2023-05-04T02:51:03.651Z,101697.97
2023-05-04T02:53:33.216Z,101690.28
2023-05-04T02:56:00.657Z,101689.63
2023-05-04T02:58:28.073Z,101696.84
2023-05-04T03:00:58.609Z,101695.38
2023-05-04T03:03:25.982Z,101689.22
2023-05-04T03:05:53.344Z,101694.31
2023-05-04T03:08:21.444Z,101700.94
2023-05-04T03:10:48.820Z,101701.38
2023-05-04T03:13:18.232Z,101718.41
2023-05-04T03:15:45.970Z,101705.91
2023-05-04T03:18:13.504Z,101710.59
2023-05-04T03:20:41.849Z,101706.34
2023-05-04T03:23:09.548Z,101719.38
2023-05-04T03:25:38.366Z,101713.22
2023-05-04T03:28:06.317Z,101711.53
2023-05-04T03:30:34.378Z,101721.78
2023-05-04T03:33:02.636Z,101710.28
2023-05-04T03:35:30.199Z,101701.78
2023-05-04T03:37:58.217Z,101713.50
2023-05-04T03:40:25.881Z,101713.31
2023-05-04T03:42:55.573Z,101703.63
2023-05-04T03:45:24.030Z,101719.63
2023-05-04T03:47:51.565Z,101719.88
2023-05-04T03:50:19.249Z,101714.19
2023-05-04T03:52:47.096Z,101723.16
2023-05-04T03:55:15.035Z,101707.22
2023-05-04T03:57:42.411Z,101721.91
2023-05-04T04:00:11.718Z,101707.66
2023-05-04T04:02:39.468Z,101721.47
2023-05-04T04:05:11.065Z,101713.16
2023-05-04T04:07:39.504Z,101713.19
2023-05-04T04:10:09.892Z,101720.03
2023-05-04T04:12:37.296Z,101709.00
2023-05-04T04:15:05.306Z,101697.94
2023-05-04T04:17:32.844Z,101709.00
2023-05-04T04:20:02.831Z,101720.09
2023-05-04T04:22:30.566Z,101709.69
2023-05-04T04:24:57.948Z,101706.47
2023-05-04T04:27:25.696Z,101701.59
2023-05-04T04:29:53.110Z,101705.50
2023-05-04T04:32:22.043Z,101692.78
2023-05-04T04:34:49.557Z,101702.78
2023-05-04T04:37:17.098Z,101701.13
2023-05-04T04:39:44.932Z,101704.13
2023-05-04T04:42:14.297Z,101713.06
2023-05-04T04:44:42.154Z,101713.50
2023-05-04T04:47:09.824Z,101701.22
2023-05-04T04:49:37.551Z,101711.47
2023-05-04T04:52:05.699Z,101714.22
2023-05-04T04:54:33.102Z,101718.50
2023-05-04T04:57:00.602Z,101720.47
2023-05-04T04:59:29.099Z,101708.13
2023-05-04T05:01:59.100Z,101708.34
2023-05-04T05:04:28.202Z,101722.38
2023-05-04T05:06:56.271Z,101713.69
2023-05-04T05:09:24.697Z,101717.50
2023-05-04T05:11:52.269Z,101717.53
2023-05-04T05:14:20.227Z,101721.75
2023-05-04T05:16:47.776Z,101728.13
2023-05-04T05:19:16.030Z,101736.84
2023-05-04T05:21:44.471Z,101722.00
2023-05-04T05:24:11.915Z,101734.97
2023-05-04T05:26:39.971Z,101740.28
2023-05-04T05:29:07.502Z,101736.03
2023-05-04T05:31:35.421Z,101733.28
2023-05-04T05:34:05.289Z,101740.97
2023-05-04T05:36:35.285Z,101734.16
2023-05-04T05:39:02.930Z,101741.59
2023-05-04T05:41:30.354Z,101734.34
2023-05-04T05:43:58.495Z,101741.59
2023-05-04T05:46:25.956Z,101740.94
2023-05-04T05:48:53.608Z,101749.66
2023-05-04T05:51:22.124Z,101754.56
2023-05-04T05:53:53.504Z,101761.34
2023-05-04T05:56:21.062Z,101761.78
2023-05-04T05:58:48.595Z,101757.09
2023-05-04T06:01:19.503Z,101760.72
2023-05-04T06:03:47.466Z,101760.31
2023-05-04T06:06:16.167Z,101760.31
2023-05-04T06:08:43.882Z,101758.38
2023-05-04T06:11:13.146Z,101752.84
2023-05-04T06:13:41.095Z,101765.13
2023-05-04T06:16:08.814Z,101763.88
2023-05-04T06:18:37.125Z,101763.00
2023-05-04T06:21:05.315Z,101767.19
2023-05-04T06:23:35.466Z,101768.41
2023-05-04T06:26:06.269Z,101767.50
2023-05-04T06:28:35.185Z,101762.88
2023-05-04T06:31:02.973Z,101763.50
2023-05-04T06:33:50.383Z,101775.56
2023-05-04T06:36:17.986Z,101782.31
2023-05-04T06:38:46.011Z,101784.00
2023-05-04T06:44:01.482Z,101789.97
2023-05-04T06:46:36.018Z,101792.22
2023-05-04T06:49:04.946Z,101779.22
2023-05-04T06:51:32.744Z,101791.50
2023-05-04T06:54:01.872Z,101796.38
2023-05-04T06:56:29.506Z,101801.03
2023-05-04T06:58:57.083Z,101806.28
2023-05-04T07:01:25.360Z,101803.72
2023-05-04T07:03:53.009Z,101809.00
2023-05-04T07:06:21.802Z,101800.28
2023-05-04T07:08:49.670Z,101824.09
2023-05-04T07:11:17.272Z,101834.28
2023-05-04T07:13:46.372Z,101823.88
2023-05-04T07:16:16.628Z,101826.41
2023-05-04T07:18:48.431Z,101830.09
2023-05-04T07:21:27.852Z,101818.81
2023-05-04T07:24:22.707Z,101825.44
2023-05-04T07:26:51.642Z,101838.56
2023-05-04T07:29:19.442Z,101834.91
2023-05-04T07:31:46.916Z,101840.19
2023-05-04T07:34:17.632Z,101829.09
2023-05-04T07:36:48.181Z,101826.00
2023-05-04T07:39:19.359Z,101835.28
2023-05-04T07:41:50.565Z,101837.72
2023-05-04T07:44:22.821Z,101842.28
2023-05-04T07:46:50.502Z,101836.66
2023-05-04T07:49:18.515Z,101848.47
2023-05-04T07:51:46.477Z,101855.16
2023-05-04T07:58:01.621Z,101833.75
2023-05-04T08:00:29.518Z,101837.34
2023-05-04T08:02:57.622Z,101844.66
2023-05-04T08:05:25.328Z,101832.69
2023-05-04T08:07:57.193Z,101839.00
2023-05-04T08:10:25.209Z,101860.28
2023-05-04T08:12:52.886Z,101854.72
2023-05-04T08:15:26.113Z,101850.88
2023-05-04T08:17:55.951Z,101845.69
2023-05-04T08:20:24.492Z,101852.56
2023-05-04T08:22:55.123Z,101852.88
2023-05-04T08:25:29.032Z,101865.19
2023-05-04T08:27:57.573Z,101871.06
2023-05-04T08:30:48.448Z,101862.72
2023-05-04T08:33:18.161Z,101869.63
2023-05-04T08:35:46.434Z,101881.53
2023-05-04T08:38:19.665Z,101867.63
2023-05-04T08:40:49.248Z,101887.53
2023-05-04T08:43:18.349Z,101873.16
2023-05-04T08:45:46.129Z,101892.31
2023-05-04T08:48:15.053Z,101870.75
2023-05-04T08:50:50.514Z,101887.47
2023-05-04T08:53:22.549Z,101888.59
2023-05-04T08:55:51.165Z,101883.88
2023-05-04T08:58:20.041Z,101885.69
2023-05-04T09:00:47.990Z,101893.00
2023-05-04T09:48:39.767Z,101931.38
2023-05-04T09:51:07.999Z,101919.34
2023-05-04T09:53:35.594Z,101914.22
2023-05-04T09:56:12.341Z,101932.94
2023-05-04T09:58:41.873Z,101912.34
2023-05-04T10:01:27.244Z,101931.31
2023-05-04T10:03:56.680Z,101927.75
2023-05-04T10:09:17.594Z,101919.72
2023-05-04T10:11:50.629Z,101932.28
2023-05-04T10:14:23.915Z,101918.69
2023-05-04T10:17:15.549Z,101932.56
2023-05-04T10:20:23.932Z,101934.88
2023-05-04T11:06:23.738Z,101922.25
2023-05-04T11:09:02.744Z,101912.66
2023-05-04T11:11:32.184Z,101932.22
2023-05-04T11:13:59.892Z,101924.44
2023-05-04T11:16:27.992Z,101925.56
2023-05-04T11:18:56.737Z,101921.66
2023-05-04T11:21:29.021Z,101924.41
2023-05-04T11:24:00.438Z,101919.00
2023-05-04T11:26:29.920Z,101909.22
2023-05-04T11:28:57.803Z,101912.72
2023-05-04T11:31:25.439Z,101909.34
2023-05-04T11:33:55.862Z,101922.31
2023-05-04T11:36:23.681Z,101906.94
2023-05-04T11:38:51.528Z,101897.94
2023-05-04T11:41:19.326Z,101895.41
2023-05-04T11:43:47.265Z,101902.66
2023-05-04T11:46:15.446Z,101885.19
2023-05-04T11:48:50.627Z,101888.56
2023-05-04T11:51:18.342Z,101901.09
2023-05-04T11:53:46.599Z,101895.25
2023-05-04T11:56:14.373Z,101887.16
2023-05-04T11:58:42.006Z,101882.75
2023-05-04T12:01:11.132Z,101876.66
2023-05-04T12:03:53.139Z,101872.50
2023-05-04T12:06:34.178Z,101875.06
2023-05-04T12:09:07.616Z,101858.81
2023-05-04T12:11:36.273Z,101859.44
2023-05-04T12:14:10.295Z,101853.56
2023-05-04T12:16:38.726Z,101852.16
2023-05-04T12:19:11.585Z,101850.53
2023-05-04T12:21:50.510Z,101843.81
2023-05-04T12:24:18.150Z,101855.06
2023-05-04T12:26:46.516Z,101853.13
2023-05-04T12:29:14.208Z,101853.47
2023-05-04T12:31:41.815Z,101852.94
2023-05-04T12:34:09.369Z,101846.75
